sensor_id;sensor_type;location;lat;lon;timestamp;P1;durP1;ratioP1;P2;durP2;ratioP2
4517;SDS011;2271;49.464;11.070;2023-11-21T00:02:14;3.43;;;0.90;;
4517;SDS011;2271;49.464;11.070;2023-11-21T00:04:40;1.60;;;0.90;;
4517;SDS011;2271;49.464;11.070;2023-11-21T00:07:05;3.47;;;0.90;;
4517;SDS011;2271;49.464;11.070;2023-11-21T00:09:31;1.43;;;1.27;;
4517;SDS011;2271;49.464;11.070;2023-11-21T00:11:57;1.23;;;0.73;;
4517;SDS011;2271;49.464;11.070;2023-11-21T00:14:27;4.17;;;1.00;;
4517;SDS011;2271;49.464;11.070;2023-11-21T00:16:52;2.33;;;0.90;;
4517;SDS011;2271;49.464;11.070;2023-11-21T00:19:18;1.27;;;0.73;;
4517;SDS011;2271;49.464;11.070;2023-11-21T00:21:44;0.97;;;0.80;;
4517;SDS011;2271;49.464;11.070;2023-11-21T00:24:10;2.90;;;1.20;;
4517;SDS011;2271;49.464;11.070;2023-11-21T00:26:38;1.90;;;0.90;;
4517;SDS011;2271;49.464;11.070;2023-11-21T00:29:04;2.37;;;1.03;;
4517;SDS011;2271;49.464;11.070;2023-11-21T00:31:33;2.07;;;1.00;;
4517;SDS011;2271;49.464;11.070;2023-11-21T00:34:02;1.13;;;1.00;;
4517;SDS011;2271;49.464;11.070;2023-11-21T00:36:28;1.53;;;0.93;;
4517;SDS011;2271;49.464;11.070;2023-11-21T00:38:54;2.13;;;1.00;;
4517;SDS011;2271;49.464;11.070;2023-11-21T00:41:20;2.53;;;1.30;;
4517;SDS011;2271;49.464;11.070;2023-11-21T00:43:46;3.37;;;1.10;;
4517;SDS011;2271;49.464;11.070;2023-11-21T00:46:12;3.60;;;1.03;;
4517;SDS011;2271;49.464;11.070;2023-11-21T00:48:38;3.50;;;1.10;;
4517;SDS011;2271;49.464;11.070;2023-11-21T00:51:04;2.33;;;1.20;;
4517;SDS011;2271;49.464;11.070;2023-11-21T00:53:31;2.00;;;1.00;;
4517;SDS011;2271;49.464;11.070;2023-11-21T00:55:56;2.37;;;1.07;;
4517;SDS011;2271;49.464;11.070;2023-11-21T00:58:25;2.53;;;1.10;;
4517;SDS011;2271;49.464;11.070;2023-11-21T01:00:51;3.77;;;1.53;;
4517;SDS011;2271;49.464;11.070;2023-11-21T01:03:17;1.77;;;0.90;;
4517;SDS011;2271;49.464;11.070;2023-11-21T01:05:43;2.60;;;1.30;;
4517;SDS011;2271;49.464;11.070;2023-11-21T01:08:09;7.10;;;1.57;;
4517;SDS011;2271;49.464;11.070;2023-11-21T01:10:35;4.13;;;1.30;;
4517;SDS011;2271;49.464;11.070;2023-11-21T01:13:01;1.33;;;1.23;;
4517;SDS011;2271;49.464;11.070;2023-11-21T01:15:30;3.87;;;1.43;;
4517;SDS011;2271;49.464;11.070;2023-11-21T01:17:55;2.63;;;1.10;;
4517;SDS011;2271;49.464;11.070;2023-11-21T01:20:21;4.77;;;1.23;;
4517;SDS011;2271;49.464;11.070;2023-11-21T01:22:47;1.67;;;1.20;;
4517;SDS011;2271;49.464;11.070;2023-11-21T01:25:14;3.60;;;1.33;;
4517;SDS011;2271;49.464;11.070;2023-11-21T01:27:41;3.97;;;1.23;;
4517;SDS011;2271;49.464;11.070;2023-11-21T01:30:08;2.57;;;1.47;;
4517;SDS011;2271;49.464;11.070;2023-11-21T01:32:35;3.63;;;1.10;;
4517;SDS011;2271;49.464;11.070;2023-11-21T01:35:01;1.43;;;1.00;;
4517;SDS011;2271;49.464;11.070;2023-11-21T01:37:27;3.50;;;1.10;;
4517;SDS011;2271;49.464;11.070;2023-11-21T01:39:53;4.63;;;0.83;;
4517;SDS011;2271;49.464;11.070;2023-11-21T01:42:20;1.50;;;1.33;;
4517;SDS011;2271;49.464;11.070;2023-11-21T01:44:46;1.47;;;0.87;;
4517;SDS011;2271;49.464;11.070;2023-11-21T01:47:11;2.27;;;0.77;;
4517;SDS011;2271;49.464;11.070;2023-11-21T01:49:39;1.33;;;1.00;;
4517;SDS011;2271;49.464;11.070;2023-11-21T01:52:04;2.30;;;1.00;;
4517;SDS011;2271;49.464;11.070;2023-11-21T01:54:31;4.93;;;0.93;;
4517;SDS011;2271;49.464;11.070;2023-11-21T01:56:58;2.47;;;0.97;;
4517;SDS011;2271;49.464;11.070;2023-11-21T01:59:28;3.70;;;1.00;;
4517;SDS011;2271;49.464;11.070;2023-11-21T02:02:05;1.73;;;1.17;;
4517;SDS011;2271;49.464;11.070;2023-11-21T02:04:34;2.27;;;1.10;;
4517;SDS011;2271;49.464;11.070;2023-11-21T02:07:03;4.73;;;1.00;;
4517;SDS011;2271;49.464;11.070;2023-11-21T02:09:32;2.27;;;0.80;;
4517;SDS011;2271;49.464;11.070;2023-11-21T02:11:59;1.80;;;0.77;;
4517;SDS011;2271;49.464;11.070;2023-11-21T02:14:25;0.97;;;0.67;;
4517;SDS011;2271;49.464;11.070;2023-11-21T02:16:53;3.00;;;0.80;;
4517;SDS011;2271;49.464;11.070;2023-11-21T02:19:21;1.63;;;0.97;;
4517;SDS011;2271;49.464;11.070;2023-11-21T02:21:51;1.40;;;0.80;;
4517;SDS011;2271;49.464;11.070;2023-11-21T02:24:21;2.00;;;0.97;;
4517;SDS011;2271;49.464;11.070;2023-11-21T02:26:50;1.60;;;1.00;;
4517;SDS011;2271;49.464;11.070;2023-11-21T02:29:19;1.93;;;0.93;;
4517;SDS011;2271;49.464;11.070;2023-11-21T02:31:53;2.20;;;1.10;;
4517;SDS011;2271;49.464;11.070;2023-11-21T02:34:20;4.33;;;1.10;;
4517;SDS011;2271;49.464;11.070;2023-11-21T02:36:46;4.77;;;1.37;;
4517;SDS011;2271;49.464;11.070;2023-11-21T02:39:14;2.23;;;0.93;;
4517;SDS011;2271;49.464;11.070;2023-11-21T02:41:41;2.73;;;1.17;;
4517;SDS011;2271;49.464;11.070;2023-11-21T02:44:07;2.80;;;1.10;;
4517;SDS011;2271;49.464;11.070;2023-11-21T02:46:34;1.30;;;1.20;;
4517;SDS011;2271;49.464;11.070;2023-11-21T02:49:04;1.83;;;1.03;;
4517;SDS011;2271;49.464;11.070;2023-11-21T02:51:31;1.93;;;1.20;;
4517;SDS011;2271;49.464;11.070;2023-11-21T02:53:57;0.90;;;0.90;;
4517;SDS011;2271;49.464;11.070;2023-11-21T02:56:27;1.30;;;1.20;;
4517;SDS011;2271;49.464;11.070;2023-11-21T02:58:55;2.33;;;1.13;;
4517;SDS011;2271;49.464;11.070;2023-11-21T03:01:21;2.10;;;1.27;;
4517;SDS011;2271;49.464;11.070;2023-11-21T03:03:48;1.43;;;1.00;;
4517;SDS011;2271;49.464;11.070;2023-11-21T03:06:16;0.83;;;0.80;;
4517;SDS011;2271;49.464;11.070;2023-11-21T03:08:42;3.30;;;1.30;;
4517;SDS011;2271;49.464;11.070;2023-11-21T03:11:08;2.43;;;0.90;;
4517;SDS011;2271;49.464;11.070;2023-11-21T03:13:33;0.80;;;0.80;;
4517;SDS011;2271;49.464;11.070;2023-11-21T03:15:59;3.43;;;1.53;;
4517;SDS011;2271;49.464;11.070;2023-11-21T03:18:25;2.50;;;1.17;;
4517;SDS011;2271;49.464;11.070;2023-11-21T03:20:52;1.77;;;1.00;;
4517;SDS011;2271;49.464;11.070;2023-11-21T03:23:18;2.33;;;1.27;;
4517;SDS011;2271;49.464;11.070;2023-11-21T03:25:43;3.00;;;1.00;;
4517;SDS011;2271;49.464;11.070;2023-11-21T03:28:09;2.37;;;1.03;;
4517;SDS011;2271;49.464;11.070;2023-11-21T03:30:35;5.47;;;1.60;;
4517;SDS011;2271;49.464;11.070;2023-11-21T03:33:00;2.40;;;1.13;;
4517;SDS011;2271;49.464;11.070;2023-11-21T03:35:26;2.57;;;1.13;;
4517;SDS011;2271;49.464;11.070;2023-11-21T03:37:52;2.37;;;1.20;;
4517;SDS011;2271;49.464;11.070;2023-11-21T03:40:17;1.40;;;1.03;;
4517;SDS011;2271;49.464;11.070;2023-11-21T03:42:43;4.77;;;1.27;;
4517;SDS011;2271;49.464;11.070;2023-11-21T03:45:09;1.57;;;1.43;;
4517;SDS011;2271;49.464;11.070;2023-11-21T03:47:34;2.17;;;1.20;;
4517;SDS011;2271;49.464;11.070;2023-11-21T03:50:00;3.47;;;1.20;;
4517;SDS011;2271;49.464;11.070;2023-11-21T03:52:26;1.57;;;1.30;;
4517;SDS011;2271;49.464;11.070;2023-11-21T03:54:53;4.47;;;1.43;;
4517;SDS011;2271;49.464;11.070;2023-11-21T03:57:20;2.33;;;1.40;;
4517;SDS011;2271;49.464;11.070;2023-11-21T03:59:46;3.10;;;1.30;;
4517;SDS011;2271;49.464;11.070;2023-11-21T04:02:11;1.40;;;1.20;;
4517;SDS011;2271;49.464;11.070;2023-11-21T04:04:37;2.17;;;1.17;;
4517;SDS011;2271;49.464;11.070;2023-11-21T04:07:03;3.40;;;1.67;;
4517;SDS011;2271;49.464;11.070;2023-11-21T04:09:29;2.77;;;1.23;;
4517;SDS011;2271;49.464;11.070;2023-11-21T04:11:55;4.27;;;1.50;;
4517;SDS011;2271;49.464;11.070;2023-11-21T04:14:20;2.27;;;1.40;;
4517;SDS011;2271;49.464;11.070;2023-11-21T04:16:47;2.17;;;1.20;;
4517;SDS011;2271;49.464;11.070;2023-11-21T04:19:13;3.40;;;1.40;;
4517;SDS011;2271;49.464;11.070;2023-11-21T04:21:42;2.87;;;0.80;;
4517;SDS011;2271;49.464;11.070;2023-11-21T04:24:08;3.13;;;1.53;;
4517;SDS011;2271;49.464;11.070;2023-11-21T04:26:33;2.13;;;0.93;;
4517;SDS011;2271;49.464;11.070;2023-11-21T04:28:59;1.67;;;0.97;;
4517;SDS011;2271;49.464;11.070;2023-11-21T04:31:25;3.40;;;1.20;;
4517;SDS011;2271;49.464;11.070;2023-11-21T04:33:50;4.23;;;1.03;;
4517;SDS011;2271;49.464;11.070;2023-11-21T04:36:16;0.83;;;0.83;;
4517;SDS011;2271;49.464;11.070;2023-11-21T04:38:42;2.13;;;1.10;;
4517;SDS011;2271;49.464;11.070;2023-11-21T04:41:08;2.27;;;1.17;;
4517;SDS011;2271;49.464;11.070;2023-11-21T04:43:33;1.97;;;1.10;;
4517;SDS011;2271;49.464;11.070;2023-11-21T04:45:59;1.83;;;1.00;;
4517;SDS011;2271;49.464;11.070;2023-11-21T04:48:25;1.83;;;1.07;;
4517;SDS011;2271;49.464;11.070;2023-11-21T04:50:50;1.40;;;1.03;;
4517;SDS011;2271;49.464;11.070;2023-11-21T04:53:16;3.13;;;1.10;;
4517;SDS011;2271;49.464;11.070;2023-11-21T04:55:42;3.87;;;0.97;;
4517;SDS011;2271;49.464;11.070;2023-11-21T04:58:08;2.83;;;1.23;;
4517;SDS011;2271;49.464;11.070;2023-11-21T05:00:34;0.90;;;0.87;;
4517;SDS011;2271;49.464;11.070;2023-11-21T05:03:02;2.80;;;0.87;;
4517;SDS011;2271;49.464;11.070;2023-11-21T05:05:28;2.47;;;1.10;;
4517;SDS011;2271;49.464;11.070;2023-11-21T05:07:57;4.33;;;1.40;;
4517;SDS011;2271;49.464;11.070;2023-11-21T05:10:23;1.97;;;1.27;;
4517;SDS011;2271;49.464;11.070;2023-11-21T05:12:48;2.57;;;1.20;;
4517;SDS011;2271;49.464;11.070;2023-11-21T05:15:15;2.97;;;1.17;;
4517;SDS011;2271;49.464;11.070;2023-11-21T05:17:42;1.00;;;0.90;;
4517;SDS011;2271;49.464;11.070;2023-11-21T05:20:12;1.40;;;1.00;;
4517;SDS011;2271;49.464;11.070;2023-11-21T05:22:39;3.73;;;1.20;;
4517;SDS011;2271;49.464;11.070;2023-11-21T05:25:05;2.10;;;1.10;;
4517;SDS011;2271;49.464;11.070;2023-11-21T05:27:36;3.23;;;1.23;;
4517;SDS011;2271;49.464;11.070;2023-11-21T05:30:02;1.30;;;1.20;;
4517;SDS011;2271;49.464;11.070;2023-11-21T05:32:32;1.73;;;1.33;;
4517;SDS011;2271;49.464;11.070;2023-11-21T05:34:58;2.00;;;1.10;;
4517;SDS011;2271;49.464;11.070;2023-11-21T05:37:24;2.97;;;1.37;;
4517;SDS011;2271;49.464;11.070;2023-11-21T05:39:52;3.33;;;1.57;;
4517;SDS011;2271;49.464;11.070;2023-11-21T05:42:21;3.87;;;1.63;;
4517;SDS011;2271;49.464;11.070;2023-11-21T05:44:47;3.57;;;2.07;;
4517;SDS011;2271;49.464;11.070;2023-11-21T05:47:13;5.67;;;1.90;;
4517;SDS011;2271;49.464;11.070;2023-11-21T05:49:38;4.17;;;2.20;;
4517;SDS011;2271;49.464;11.070;2023-11-21T05:52:04;5.47;;;2.47;;
4517;SDS011;2271;49.464;11.070;2023-11-21T05:54:30;6.63;;;2.50;;
4517;SDS011;2271;49.464;11.070;2023-11-21T05:56:56;3.47;;;2.23;;
4517;SDS011;2271;49.464;11.070;2023-11-21T05:59:22;3.00;;;2.33;;
4517;SDS011;2271;49.464;11.070;2023-11-21T06:01:48;3.50;;;3.03;;
4517;SDS011;2271;49.464;11.070;2023-11-21T06:04:14;6.93;;;3.40;;
4517;SDS011;2271;49.464;11.070;2023-11-21T06:06:39;4.07;;;2.50;;
4517;SDS011;2271;49.464;11.070;2023-11-21T06:09:05;3.00;;;2.27;;
4517;SDS011;2271;49.464;11.070;2023-11-21T06:11:33;4.07;;;2.33;;
4517;SDS011;2271;49.464;11.070;2023-11-21T06:13:59;4.67;;;2.67;;
4517;SDS011;2271;49.464;11.070;2023-11-21T06:16:25;6.03;;;2.30;;
4517;SDS011;2271;49.464;11.070;2023-11-21T06:18:50;3.03;;;2.20;;
4517;SDS011;2271;49.464;11.070;2023-11-21T06:21:16;3.10;;;2.10;;
4517;SDS011;2271;49.464;11.070;2023-11-21T06:23:43;3.33;;;2.43;;
4517;SDS011;2271;49.464;11.070;2023-11-21T06:26:08;3.60;;;2.50;;
4517;SDS011;2271;49.464;11.070;2023-11-21T06:28:34;5.13;;;1.97;;
4517;SDS011;2271;49.464;11.070;2023-11-21T06:31:01;3.03;;;2.07;;
4517;SDS011;2271;49.464;11.070;2023-11-21T06:33:30;4.63;;;2.50;;
4517;SDS011;2271;49.464;11.070;2023-11-21T06:35:56;2.13;;;1.93;;
4517;SDS011;2271;49.464;11.070;2023-11-21T06:38:22;2.80;;;1.90;;
4517;SDS011;2271;49.464;11.070;2023-11-21T06:40:53;5.17;;;2.03;;
4517;SDS011;2271;49.464;11.070;2023-11-21T06:43:19;2.27;;;1.90;;
4517;SDS011;2271;49.464;11.070;2023-11-21T06:45:47;4.53;;;2.40;;
4517;SDS011;2271;49.464;11.070;2023-11-21T06:48:12;4.43;;;2.17;;
4517;SDS011;2271;49.464;11.070;2023-11-21T06:50:38;6.60;;;3.53;;
4517;SDS011;2271;49.464;11.070;2023-11-21T06:53:04;5.80;;;3.00;;
4517;SDS011;2271;49.464;11.070;2023-11-21T06:55:32;5.83;;;2.90;;
4517;SDS011;2271;49.464;11.070;2023-11-21T06:57:57;5.90;;;2.00;;
4517;SDS011;2271;49.464;11.070;2023-11-21T07:00:25;2.90;;;2.43;;
4517;SDS011;2271;49.464;11.070;2023-11-21T07:02:52;2.83;;;2.57;;
4517;SDS011;2271;49.464;11.070;2023-11-21T07:05:19;4.10;;;3.67;;
4517;SDS011;2271;49.464;11.070;2023-11-21T07:07:46;4.63;;;2.43;;
4517;SDS011;2271;49.464;11.070;2023-11-21T07:10:13;7.20;;;2.67;;
4517;SDS011;2271;49.464;11.070;2023-11-21T07:12:39;2.70;;;2.50;;
4517;SDS011;2271;49.464;11.070;2023-11-21T07:15:05;6.40;;;2.80;;
4517;SDS011;2271;49.464;11.070;2023-11-21T07:17:34;4.23;;;2.30;;
4517;SDS011;2271;49.464;11.070;2023-11-21T07:20:01;2.20;;;2.00;;
4517;SDS011;2271;49.464;11.070;2023-11-21T07:22:27;4.57;;;2.60;;
4517;SDS011;2271;49.464;11.070;2023-11-21T07:24:53;4.60;;;2.37;;
4517;SDS011;2271;49.464;11.070;2023-11-21T07:27:19;4.93;;;2.40;;
4517;SDS011;2271;49.464;11.070;2023-11-21T07:29:44;4.00;;;2.40;;
4517;SDS011;2271;49.464;11.070;2023-11-21T07:32:10;4.83;;;2.20;;
4517;SDS011;2271;49.464;11.070;2023-11-21T07:34:36;4.73;;;2.43;;
4517;SDS011;2271;49.464;11.070;2023-11-21T07:37:02;6.23;;;2.67;;
4517;SDS011;2271;49.464;11.070;2023-11-21T07:39:28;2.83;;;2.27;;
4517;SDS011;2271;49.464;11.070;2023-11-21T07:41:55;5.53;;;2.90;;
4517;SDS011;2271;49.464;11.070;2023-11-21T07:44:21;3.93;;;2.70;;
4517;SDS011;2271;49.464;11.070;2023-11-21T07:46:47;5.57;;;2.43;;
4517;SDS011;2271;49.464;11.070;2023-11-21T07:49:14;7.33;;;2.77;;
4517;SDS011;2271;49.464;11.070;2023-11-21T07:51:43;5.40;;;3.60;;
4517;SDS011;2271;49.464;11.070;2023-11-21T07:54:08;3.87;;;2.87;;
4517;SDS011;2271;49.464;11.070;2023-11-21T07:56:35;4.30;;;2.77;;
4517;SDS011;2271;49.464;11.070;2023-11-21T07:59:00;3.37;;;2.80;;
4517;SDS011;2271;49.464;11.070;2023-11-21T08:01:26;2.50;;;2.23;;
4517;SDS011;2271;49.464;11.070;2023-11-21T08:03:53;6.43;;;2.93;;
4517;SDS011;2271;49.464;11.070;2023-11-21T08:06:22;3.20;;;2.90;;
4517;SDS011;2271;49.464;11.070;2023-11-21T08:08:49;4.20;;;2.90;;
4517;SDS011;2271;49.464;11.070;2023-11-21T08:11:14;5.17;;;3.47;;
4517;SDS011;2271;49.464;11.070;2023-11-21T08:13:40;4.33;;;2.87;;
4517;SDS011;2271;49.464;11.070;2023-11-21T08:16:06;7.00;;;3.33;;
4517;SDS011;2271;49.464;11.070;2023-11-21T08:18:32;6.07;;;3.43;;
4517;SDS011;2271;49.464;11.070;2023-11-21T08:20:59;3.30;;;2.93;;
4517;SDS011;2271;49.464;11.070;2023-11-21T08:23:25;6.00;;;3.07;;
4517;SDS011;2271;49.464;11.070;2023-11-21T08:25:54;4.27;;;3.50;;
4517;SDS011;2271;49.464;11.070;2023-11-21T08:28:20;5.27;;;3.40;;
4517;SDS011;2271;49.464;11.070;2023-11-21T08:30:51;4.33;;;3.23;;
4517;SDS011;2271;49.464;11.070;2023-11-21T08:33:17;7.50;;;3.17;;
4517;SDS011;2271;49.464;11.070;2023-11-21T08:35:43;3.13;;;2.77;;
4517;SDS011;2271;49.464;11.070;2023-11-21T08:38:09;7.90;;;3.30;;
4517;SDS011;2271;49.464;11.070;2023-11-21T08:40:35;4.40;;;3.30;;
4517;SDS011;2271;49.464;11.070;2023-11-21T08:43:01;4.10;;;3.67;;
4517;SDS011;2271;49.464;11.070;2023-11-21T08:45:29;6.67;;;5.00;;
4517;SDS011;2271;49.464;11.070;2023-11-21T08:47:55;6.97;;;4.23;;
4517;SDS011;2271;49.464;11.070;2023-11-21T08:50:21;8.73;;;4.53;;
4517;SDS011;2271;49.464;11.070;2023-11-21T08:52:50;4.90;;;4.50;;
4517;SDS011;2271;49.464;11.070;2023-11-21T08:55:16;6.70;;;4.70;;
4517;SDS011;2271;49.464;11.070;2023-11-21T08:57:43;6.27;;;4.37;;
4517;SDS011;2271;49.464;11.070;2023-11-21T09:00:09;5.77;;;4.10;;
4517;SDS011;2271;49.464;11.070;2023-11-21T09:02:37;5.47;;;4.60;;
4517;SDS011;2271;49.464;11.070;2023-11-21T09:05:04;6.83;;;4.40;;
4517;SDS011;2271;49.464;11.070;2023-11-21T09:07:30;6.47;;;4.57;;
4517;SDS011;2271;49.464;11.070;2023-11-21T09:09:56;5.47;;;4.33;;
4517;SDS011;2271;49.464;11.070;2023-11-21T09:12:22;4.90;;;4.00;;
4517;SDS011;2271;49.464;11.070;2023-11-21T09:14:49;7.93;;;4.70;;
4517;SDS011;2271;49.464;11.070;2023-11-21T09:17:15;9.80;;;4.77;;
4517;SDS011;2271;49.464;11.070;2023-11-21T09:19:41;8.77;;;5.10;;
4517;SDS011;2271;49.464;11.070;2023-11-21T09:22:08;8.03;;;5.23;;
4517;SDS011;2271;49.464;11.070;2023-11-21T09:24:34;7.63;;;4.30;;
4517;SDS011;2271;49.464;11.070;2023-11-21T09:27:00;7.00;;;5.03;;
4517;SDS011;2271;49.464;11.070;2023-11-21T09:29:26;5.50;;;4.63;;
4517;SDS011;2271;49.464;11.070;2023-11-21T09:31:52;5.30;;;4.53;;
4517;SDS011;2271;49.464;11.070;2023-11-21T09:34:19;4.63;;;4.10;;
4517;SDS011;2271;49.464;11.070;2023-11-21T09:36:45;5.20;;;4.07;;
4517;SDS011;2271;49.464;11.070;2023-11-21T09:39:11;6.20;;;4.73;;
4517;SDS011;2271;49.464;11.070;2023-11-21T09:41:52;5.50;;;4.00;;
4517;SDS011;2271;49.464;11.070;2023-11-21T09:44:22;8.27;;;4.70;;
4517;SDS011;2271;49.464;11.070;2023-11-21T09:47:00;8.10;;;6.17;;
4517;SDS011;2271;49.464;11.070;2023-11-21T09:49:27;6.57;;;4.67;;
4517;SDS011;2271;49.464;11.070;2023-11-21T09:51:55;5.33;;;4.53;;
4517;SDS011;2271;49.464;11.070;2023-11-21T09:54:23;5.70;;;5.10;;
4517;SDS011;2271;49.464;11.070;2023-11-21T09:56:51;5.27;;;4.77;;
4517;SDS011;2271;49.464;11.070;2023-11-21T09:59:17;8.03;;;5.40;;
4517;SDS011;2271;49.464;11.070;2023-11-21T10:01:43;6.23;;;4.57;;
4517;SDS011;2271;49.464;11.070;2023-11-21T10:04:11;4.80;;;4.27;;
4517;SDS011;2271;49.464;11.070;2023-11-21T10:06:40;7.20;;;4.63;;
4517;SDS011;2271;49.464;11.070;2023-11-21T10:09:08;8.13;;;4.33;;
4517;SDS011;2271;49.464;11.070;2023-11-21T10:11:43;4.53;;;3.83;;
4517;SDS011;2271;49.464;11.070;2023-11-21T10:14:12;7.00;;;5.77;;
4517;SDS011;2271;49.464;11.070;2023-11-21T10:16:39;5.97;;;4.20;;
4517;SDS011;2271;49.464;11.070;2023-11-21T10:19:05;4.73;;;3.77;;
4517;SDS011;2271;49.464;11.070;2023-11-21T10:21:34;7.67;;;4.73;;
4517;SDS011;2271;49.464;11.070;2023-11-21T10:24:00;7.47;;;4.07;;
4517;SDS011;2271;49.464;11.070;2023-11-21T10:26:29;6.17;;;4.13;;
4517;SDS011;2271;49.464;11.070;2023-11-21T10:29:02;8.53;;;3.57;;
4517;SDS011;2271;49.464;11.070;2023-11-21T10:31:31;7.33;;;4.07;;
4517;SDS011;2271;49.464;11.070;2023-11-21T10:34:16;4.63;;;3.17;;
4517;SDS011;2271;49.464;11.070;2023-11-21T10:36:46;7.00;;;3.10;;
4517;SDS011;2271;49.464;11.070;2023-11-21T10:39:19;2.60;;;2.40;;
4517;SDS011;2271;49.464;11.070;2023-11-21T10:41:48;3.60;;;3.17;;
4517;SDS011;2271;49.464;11.070;2023-11-21T10:44:14;5.80;;;3.30;;
4517;SDS011;2271;49.464;11.070;2023-11-21T10:46:55;5.03;;;3.57;;
4517;SDS011;2271;49.464;11.070;2023-11-21T10:49:22;5.20;;;3.50;;
4517;SDS011;2271;49.464;11.070;2023-11-21T10:51:50;4.67;;;3.40;;
4517;SDS011;2271;49.464;11.070;2023-11-21T10:54:18;5.67;;;3.30;;
4517;SDS011;2271;49.464;11.070;2023-11-21T10:56:45;5.70;;;4.00;;
4517;SDS011;2271;49.464;11.070;2023-11-21T10:59:13;5.50;;;3.63;;
4517;SDS011;2271;49.464;11.070;2023-11-21T11:01:41;5.10;;;3.73;;
4517;SDS011;2271;49.464;11.070;2023-11-21T11:04:09;6.30;;;3.20;;
4517;SDS011;2271;49.464;11.070;2023-11-21T11:07:24;3.40;;;2.83;;
4517;SDS011;2271;49.464;11.070;2023-11-21T11:09:34;8.80;;;2.80;;
4517;SDS011;2271;49.464;11.070;2023-11-21T11:12:03;12.20;;;2.83;;
4517;SDS011;2271;49.464;11.070;2023-11-21T11:14:32;3.93;;;2.70;;
4517;SDS011;2271;49.464;11.070;2023-11-21T11:16:58;5.23;;;2.33;;
4517;SDS011;2271;49.464;11.070;2023-11-21T11:19:25;2.00;;;1.90;;
4517;SDS011;2271;49.464;11.070;2023-11-21T11:21:53;2.73;;;2.43;;
4517;SDS011;2271;49.464;11.070;2023-11-21T11:35:37;4.63;;;2.23;;
4517;SDS011;2271;49.464;11.070;2023-11-21T11:38:06;4.27;;;3.10;;
4517;SDS011;2271;49.464;11.070;2023-11-21T11:40:39;3.43;;;2.70;;
4517;SDS011;2271;49.464;11.070;2023-11-21T11:43:12;5.43;;;2.13;;
4517;SDS011;2271;49.464;11.070;2023-11-21T11:45:38;2.10;;;1.77;;
4517;SDS011;2271;49.464;11.070;2023-11-21T11:48:07;2.92;;;2.03;;
4517;SDS011;2271;49.464;11.070;2023-11-21T11:50:41;3.03;;;2.13;;
4517;SDS011;2271;49.464;11.070;2023-11-21T11:53:25;55.97;;;7.35;;
4517;SDS011;2271;49.464;11.070;2023-11-21T11:55:57;2.78;;;2.50;;
4517;SDS011;2271;49.464;11.070;2023-11-21T11:58:54;2.00;;;1.90;;
4517;SDS011;2271;49.464;11.070;2023-11-21T12:01:22;2.63;;;2.10;;
4517;SDS011;2271;49.464;11.070;2023-11-21T12:06:42;2.33;;;2.13;;
4517;SDS011;2271;49.464;11.070;2023-11-21T12:09:12;2.17;;;1.98;;
4517;SDS011;2271;49.464;11.070;2023-11-21T12:11:49;3.45;;;2.40;;
4517;SDS011;2271;49.464;11.070;2023-11-21T12:14:15;6.85;;;3.50;;
4517;SDS011;2271;49.464;11.070;2023-11-21T12:16:42;4.20;;;3.33;;
4517;SDS011;2271;49.464;11.070;2023-11-21T12:19:08;3.70;;;3.10;;
4517;SDS011;2271;49.464;11.070;2023-11-21T12:21:36;2.33;;;2.13;;
4517;SDS011;2271;49.464;11.070;2023-11-21T12:24:01;3.33;;;2.55;;
4517;SDS011;2271;49.464;11.070;2023-11-21T12:26:28;4.57;;;3.43;;
4517;SDS011;2271;49.464;11.070;2023-11-21T12:28:53;4.25;;;3.15;;
4517;SDS011;2271;49.464;11.070;2023-11-21T12:31:20;3.58;;;3.05;;
4517;SDS011;2271;49.464;11.070;2023-11-21T12:33:49;4.53;;;3.88;;
4517;SDS011;2271;49.464;11.070;2023-11-21T12:36:16;5.33;;;3.87;;
4517;SDS011;2271;49.464;11.070;2023-11-21T12:38:42;3.90;;;3.30;;
4517;SDS011;2271;49.464;11.070;2023-11-21T12:41:08;4.10;;;3.70;;
4517;SDS011;2271;49.464;11.070;2023-11-21T12:43:35;4.32;;;3.92;;
4517;SDS011;2271;49.464;11.070;2023-11-21T12:46:04;4.78;;;3.80;;
4517;SDS011;2271;49.464;11.070;2023-11-21T12:48:31;6.10;;;4.05;;
4517;SDS011;2271;49.464;11.070;2023-11-21T12:50:57;4.68;;;3.60;;
4517;SDS011;2271;49.464;11.070;2023-11-21T12:53:25;3.58;;;3.13;;
4517;SDS011;2271;49.464;11.070;2023-11-21T12:55:51;4.50;;;4.05;;
4517;SDS011;2271;49.464;11.070;2023-11-21T12:58:17;5.07;;;3.58;;
4517;SDS011;2271;49.464;11.070;2023-11-21T13:00:48;4.25;;;3.80;;
4517;SDS011;2271;49.464;11.070;2023-11-21T13:03:15;3.60;;;3.30;;
4517;SDS011;2271;49.464;11.070;2023-11-21T13:05:43;5.88;;;4.00;;
4517;SDS011;2271;49.464;11.070;2023-11-21T13:08:11;4.77;;;3.33;;
4517;SDS011;2271;49.464;11.070;2023-11-21T13:10:38;3.92;;;3.33;;
4517;SDS011;2271;49.464;11.070;2023-11-21T13:13:07;3.90;;;3.50;;
4517;SDS011;2271;49.464;11.070;2023-11-21T13:15:38;7.43;;;3.60;;
4517;SDS011;2271;49.464;11.070;2023-11-21T13:18:06;5.55;;;4.35;;
4517;SDS011;2271;49.464;11.070;2023-11-21T13:20:32;5.15;;;3.80;;
4517;SDS011;2271;49.464;11.070;2023-11-21T13:22:58;3.60;;;3.30;;
4517;SDS011;2271;49.464;11.070;2023-11-21T13:25:26;4.03;;;3.08;;
4517;SDS011;2271;49.464;11.070;2023-11-21T13:27:56;6.27;;;3.57;;
4517;SDS011;2271;49.464;11.070;2023-11-21T13:30:26;4.65;;;3.42;;
4517;SDS011;2271;49.464;11.070;2023-11-21T13:32:58;6.28;;;3.50;;
4517;SDS011;2271;49.464;11.070;2023-11-21T13:35:30;3.47;;;2.70;;
4517;SDS011;2271;49.464;11.070;2023-11-21T13:38:12;5.93;;;3.42;;
4517;SDS011;2271;49.464;11.070;2023-11-21T13:40:48;4.80;;;2.83;;
4517;SDS011;2271;49.464;11.070;2023-11-21T13:43:17;5.53;;;3.23;;
4517;SDS011;2271;49.464;11.070;2023-11-21T13:45:45;4.45;;;2.83;;
4517;SDS011;2271;49.464;11.070;2023-11-21T13:48:12;2.63;;;1.98;;
4517;SDS011;2271;49.464;11.070;2023-11-21T13:50:50;4.45;;;2.22;;
4517;SDS011;2271;49.464;11.070;2023-11-21T13:53:26;7.03;;;2.97;;
4517;SDS011;2271;49.464;11.070;2023-11-21T13:55:53;3.75;;;2.72;;
4517;SDS011;2271;49.464;11.070;2023-11-21T13:58:22;3.88;;;2.00;;
4517;SDS011;2271;49.464;11.070;2023-11-21T14:01:09;2.67;;;1.63;;
4517;SDS011;2271;49.464;11.070;2023-11-21T14:03:53;9.70;;;2.30;;
4517;SDS011;2271;49.464;11.070;2023-11-21T14:06:26;5.85;;;1.83;;
4517;SDS011;2271;49.464;11.070;2023-11-21T14:08:59;2.55;;;2.20;;
4517;SDS011;2271;49.464;11.070;2023-11-21T14:11:30;4.18;;;2.20;;
4517;SDS011;2271;49.464;11.070;2023-11-21T14:13:55;5.47;;;1.92;;
4517;SDS011;2271;49.464;11.070;2023-11-21T14:16:23;2.78;;;2.40;;
4517;SDS011;2271;49.464;11.070;2023-11-21T14:18:48;3.13;;;2.00;;
4517;SDS011;2271;49.464;11.070;2023-11-21T14:21:22;5.30;;;2.20;;
4517;SDS011;2271;49.464;11.070;2023-11-21T14:23:48;2.28;;;1.85;;
4517;SDS011;2271;49.464;11.070;2023-11-21T14:26:14;5.25;;;2.13;;
4517;SDS011;2271;49.464;11.070;2023-11-21T14:28:40;4.45;;;2.50;;
4517;SDS011;2271;49.464;11.070;2023-11-21T14:31:06;4.78;;;3.10;;
4517;SDS011;2271;49.464;11.070;2023-11-21T14:33:32;8.17;;;2.20;;
4517;SDS011;2271;49.464;11.070;2023-11-21T14:35:58;3.25;;;2.08;;
4517;SDS011;2271;49.464;11.070;2023-11-21T14:38:24;2.17;;;1.97;;
4517;SDS011;2271;49.464;11.070;2023-11-21T14:40:50;2.70;;;1.50;;
4517;SDS011;2271;49.464;11.070;2023-11-21T14:43:15;2.73;;;2.23;;
4517;SDS011;2271;49.464;11.070;2023-11-21T14:45:42;6.53;;;2.40;;
4517;SDS011;2271;49.464;11.070;2023-11-21T14:48:07;5.50;;;2.47;;
4517;SDS011;2271;49.464;11.070;2023-11-21T14:50:41;4.10;;;2.47;;
4517;SDS011;2271;49.464;11.070;2023-11-21T14:53:07;3.63;;;2.70;;
4517;SDS011;2271;49.464;11.070;2023-11-21T14:55:38;3.73;;;2.73;;
4517;SDS011;2271;49.464;11.070;2023-11-21T14:58:18;5.67;;;3.20;;
4517;SDS011;2271;49.464;11.070;2023-11-21T15:00:53;3.70;;;2.13;;
4517;SDS011;2271;49.464;11.070;2023-11-21T15:03:27;3.90;;;2.50;;
4517;SDS011;2271;49.464;11.070;2023-11-21T15:05:56;3.27;;;2.43;;
4517;SDS011;2271;49.464;11.070;2023-11-21T15:08:45;4.20;;;2.10;;
4517;SDS011;2271;49.464;11.070;2023-11-21T15:11:20;2.70;;;2.30;;
4517;SDS011;2271;49.464;11.070;2023-11-21T15:13:50;6.43;;;2.30;;
4517;SDS011;2271;49.464;11.070;2023-11-21T15:16:17;3.87;;;2.27;;
4517;SDS011;2271;49.464;11.070;2023-11-21T15:18:43;3.13;;;2.25;;